Whitelaw, Canada
Current Conditions -  °F | °C
As of 6:00 AM on Tuesday 21 Oct 2014 (Local Time) from CYPE Reporting Station
Scattered Clouds Scattered Clouds  
Wind Chill: 28°   Ceiling: Unl
Heat Index: 34°   Visibility: 15mi
Dew Point: 32°   Wind: 7mph
Humidity: 93%   Direction: 190°S
Pressure: 29.54"   Gusts: NA
Location:  56.1°N, 118.08°W
Report Text: CYPE 211200Z 19006KT 15SM SCT250 01/00 A2954 RMK CI3 SLP020
Loading
Personal Weather Stations






























Interactive Weather Map
Tropical Storm Tracking
New forecast layout! Learn more

10-Day Weather Forecast

Advertisements
Track Severe Weather on mobile